createdAt,value
2018-12-08T00:01:07.295Z,100.00
2018-12-08T00:03:38.181Z,100.00
2018-12-08T00:06:08.974Z,100.00
2018-12-08T00:08:39.805Z,100.00
2018-12-08T00:11:10.720Z,100.00
2018-12-08T00:13:41.829Z,100.00
2018-12-08T00:16:12.765Z,100.00
2018-12-08T00:18:43.251Z,100.00
2018-12-08T00:21:14.293Z,100.00
2018-12-08T00:23:45.209Z,100.00
2018-12-08T00:26:16.146Z,100.00
2018-12-08T00:28:46.910Z,100.00
2018-12-08T00:31:33.887Z,100.00
2018-12-08T00:34:04.556Z,100.00
2018-12-08T00:36:35.417Z,100.00
2018-12-08T00:39:08.175Z,100.00
2018-12-08T00:41:39.383Z,100.00
2018-12-08T00:44:10.247Z,100.00
2018-12-08T00:46:41.581Z,100.00
2018-12-08T00:49:12.541Z,100.00
2018-12-08T00:51:43.473Z,100.00
2018-12-08T00:54:14.185Z,100.00
2018-12-08T00:56:45.068Z,100.00
2018-12-08T00:59:15.980Z,100.00
2018-12-08T01:01:46.849Z,100.00
2018-12-08T01:04:17.505Z,100.00
2018-12-08T01:06:48.298Z,100.00
2018-12-08T01:09:18.988Z,100.00
2018-12-08T01:11:49.919Z,100.00
2018-12-08T01:14:20.575Z,100.00
2018-12-08T01:16:51.515Z,100.00
2018-12-08T01:19:22.183Z,100.00
2018-12-08T01:21:53.653Z,100.00
2018-12-08T01:24:24.453Z,100.00
2018-12-08T01:26:55.329Z,100.00
2018-12-08T01:29:26.126Z,100.00
2018-12-08T01:31:57.433Z,100.00
2018-12-08T01:34:28.416Z,100.00
2018-12-08T01:36:59.336Z,100.00
2018-12-08T01:39:30.403Z,100.00
2018-12-08T01:42:01.352Z,100.00
2018-12-08T01:44:32.128Z,100.00
2018-12-08T01:47:02.884Z,100.00
2018-12-08T01:49:35.250Z,100.00
2018-12-08T01:52:07.273Z,100.00
2018-12-08T01:54:38.961Z,100.00
2018-12-08T01:57:09.958Z,100.00
2018-12-08T01:59:40.926Z,100.00
2018-12-08T02:02:11.832Z,100.00
2018-12-08T02:04:42.709Z,100.00
2018-12-08T02:07:13.592Z,100.00
2018-12-08T02:09:44.338Z,100.00
2018-12-08T02:12:15.305Z,100.00
2018-12-08T02:14:46.144Z,100.00
2018-12-08T02:17:17.128Z,100.00
2018-12-08T02:19:47.903Z,100.00
2018-12-08T02:22:19.040Z,100.00
2018-12-08T02:24:49.994Z,100.00
2018-12-08T02:27:21.051Z,100.00
2018-12-08T02:29:51.858Z,100.00
2018-12-08T02:32:22.972Z,100.00
2018-12-08T02:34:53.848Z,100.00
2018-12-08T02:37:24.767Z,100.00
2018-12-08T02:39:55.650Z,100.00
2018-12-08T02:42:26.566Z,100.00
2018-12-08T02:44:57.355Z,100.00
2018-12-08T02:47:28.301Z,100.00
2018-12-08T02:49:59.119Z,100.00
2018-12-08T02:52:30.038Z,100.00
2018-12-08T02:55:00.871Z,100.00
2018-12-08T02:57:31.623Z,100.00
2018-12-08T03:00:02.463Z,100.00
2018-12-08T03:02:33.600Z,100.00
2018-12-08T03:05:04.460Z,100.00
2018-12-08T03:07:35.242Z,100.00
2018-12-08T03:10:06.449Z,100.00
2018-12-08T03:12:37.273Z,100.00
2018-12-08T03:15:08.491Z,100.00
2018-12-08T03:17:39.968Z,100.00
2018-12-08T03:20:10.683Z,100.00
2018-12-08T03:22:41.993Z,100.00
2018-12-08T03:25:12.995Z,100.00
2018-12-08T03:27:43.809Z,100.00
2018-12-08T03:30:14.908Z,100.00
2018-12-08T03:32:46.181Z,100.00
2018-12-08T03:35:17.020Z,100.00
2018-12-08T03:37:47.700Z,100.00
2018-12-08T03:40:18.612Z,100.00
2018-12-08T03:42:49.371Z,100.00
2018-12-08T03:45:20.079Z,100.00
2018-12-08T03:47:51.006Z,100.00
2018-12-08T03:50:21.895Z,100.00
2018-12-08T03:52:52.514Z,100.00
2018-12-08T03:55:23.186Z,100.00
2018-12-08T03:57:53.926Z,100.00
2018-12-08T04:00:24.890Z,100.00
2018-12-08T04:02:55.561Z,100.00
2018-12-08T04:05:26.150Z,100.00
2018-12-08T04:07:56.860Z,100.00
2018-12-08T04:10:27.676Z,100.00
2018-12-08T04:12:58.532Z,100.00
2018-12-08T04:15:29.450Z,100.00
2018-12-08T04:18:00.340Z,100.00
2018-12-08T04:20:31.191Z,100.00
2018-12-08T04:23:01.857Z,100.00
2018-12-08T04:25:32.654Z,100.00
2018-12-08T04:28:03.341Z,100.00
2018-12-08T04:30:34.007Z,100.00
2018-12-08T04:33:04.901Z,100.00
2018-12-08T04:35:35.969Z,100.00
2018-12-08T04:38:06.851Z,100.00
2018-12-08T04:40:37.760Z,100.00
2018-12-08T04:43:08.381Z,100.00
2018-12-08T04:45:39.112Z,100.00
2018-12-08T04:48:10.599Z,100.00
2018-12-08T04:50:41.230Z,100.00
2018-12-08T04:53:12.056Z,100.00
2018-12-08T04:55:42.901Z,100.00
2018-12-08T04:58:13.533Z,100.00
2018-12-08T05:00:44.311Z,100.00
2018-12-08T05:03:15.117Z,100.00
2018-12-08T05:05:45.969Z,100.00
2018-12-08T05:08:16.586Z,100.00
2018-12-08T05:10:47.428Z,100.00
2018-12-08T05:13:18.344Z,100.00
2018-12-08T05:15:49.172Z,100.00
2018-12-08T05:18:19.800Z,100.00
2018-12-08T05:20:50.527Z,100.00
2018-12-08T05:23:21.393Z,100.00
2018-12-08T05:25:52.693Z,100.00
2018-12-08T05:28:23.594Z,100.00
2018-12-08T05:30:54.476Z,100.00
2018-12-08T05:33:25.291Z,100.00
2018-12-08T05:35:56.073Z,100.00
2018-12-08T05:38:27.739Z,100.00
2018-12-08T05:40:58.866Z,100.00
2018-12-08T05:43:29.801Z,100.00
2018-12-08T05:46:00.899Z,100.00
2018-12-08T05:48:32.054Z,100.00
2018-12-08T05:51:02.809Z,100.00
2018-12-08T05:53:33.758Z,100.00
2018-12-08T05:56:04.947Z,100.00
2018-12-08T05:58:36.270Z,100.00
2018-12-08T06:01:08.036Z,100.00
2018-12-08T06:03:40.092Z,100.00
2018-12-08T06:06:12.571Z,100.00
2018-12-08T06:08:43.389Z,100.00
2018-12-08T06:11:14.223Z,100.00
2018-12-08T06:13:45.129Z,100.00
2018-12-08T06:16:16.067Z,100.00
2018-12-08T06:18:46.874Z,100.00
2018-12-08T06:21:18.253Z,100.00
2018-12-08T06:23:49.232Z,100.00
2018-12-08T06:26:23.334Z,100.00
2018-12-08T06:28:56.580Z,100.00
2018-12-08T06:31:27.438Z,100.00
2018-12-08T06:33:58.361Z,100.00
2018-12-08T06:36:29.204Z,100.00
2018-12-08T06:39:00.113Z,100.00
2018-12-08T06:41:31.097Z,100.00
2018-12-08T06:44:01.966Z,100.00
2018-12-08T06:46:32.800Z,100.00
2018-12-08T06:49:03.701Z,100.00
2018-12-08T06:51:34.565Z,100.00
2018-12-08T06:54:05.903Z,99.82
2018-12-08T06:56:37.641Z,97.96
2018-12-08T06:59:08.462Z,97.23
2018-12-08T07:01:39.268Z,94.80
2018-12-08T07:04:10.475Z,98.05
2018-12-08T07:06:41.318Z,98.20
2018-12-08T07:09:12.314Z,97.59
2018-12-08T07:11:43.195Z,96.44
2018-12-08T07:14:14.043Z,94.50
2018-12-08T07:16:45.875Z,96.02
2018-12-08T07:19:17.134Z,91.23
2018-12-08T07:21:48.165Z,88.08
2018-12-08T07:24:19.183Z,86.92
2018-12-08T07:26:50.119Z,84.10
2018-12-08T07:29:21.107Z,82.09
2018-12-08T07:31:51.981Z,79.35
2018-12-08T07:34:24.648Z,79.16
2018-12-08T07:36:55.944Z,74.20
2018-12-08T07:39:27.040Z,67.64
2018-12-08T07:41:58.139Z,60.89
2018-12-08T07:44:30.168Z,57.78
2018-12-08T07:47:01.026Z,54.02
2018-12-08T07:49:32.000Z,56.67
2018-12-08T07:52:03.715Z,59.75
2018-12-08T07:54:35.690Z,69.17
2018-12-08T07:57:06.759Z,75.06
2018-12-08T07:59:37.528Z,73.42
2018-12-08T08:02:08.686Z,70.65
2018-12-08T08:04:39.930Z,73.59
2018-12-08T08:07:10.941Z,76.66
2018-12-08T08:09:41.953Z,81.22
2018-12-08T08:12:13.035Z,84.09
2018-12-08T08:14:44.956Z,86.22
2018-12-08T08:17:15.886Z,87.53
2018-12-08T08:19:47.360Z,88.92
2018-12-08T08:22:18.457Z,88.62
2018-12-08T08:24:50.909Z,89.48
2018-12-08T08:27:22.876Z,90.64
2018-12-08T08:29:55.108Z,93.04
2018-12-08T08:32:27.028Z,94.87
2018-12-08T08:34:58.516Z,95.88
2018-12-08T08:37:30.150Z,96.46
2018-12-08T08:40:01.493Z,97.05
2018-12-08T08:42:33.145Z,96.91
2018-12-08T08:45:04.907Z,100.00
2018-12-08T08:47:37.429Z,88.81
2018-12-08T08:50:11.574Z,68.91
2018-12-08T08:52:43.331Z,59.46
2018-12-08T08:55:14.701Z,51.33
2018-12-08T08:57:46.326Z,47.08
2018-12-08T09:00:17.572Z,47.87
2018-12-08T09:02:48.741Z,46.31
2018-12-08T09:05:19.980Z,43.38
2018-12-08T09:07:51.533Z,40.87
2018-12-08T09:10:23.210Z,40.30
2018-12-08T09:12:54.367Z,40.07
2018-12-08T09:15:26.228Z,39.40
2018-12-08T09:17:58.644Z,39.86
2018-12-08T09:20:31.477Z,41.56
2018-12-08T09:23:02.343Z,39.24
2018-12-08T09:25:33.600Z,38.72
2018-12-08T09:28:04.815Z,37.24
2018-12-08T09:30:36.099Z,36.58
2018-12-08T09:33:09.009Z,34.92
2018-12-08T09:35:40.727Z,36.69
2018-12-08T09:38:12.803Z,41.90
2018-12-08T09:40:44.600Z,41.96
2018-12-08T09:43:17.123Z,44.73
2018-12-08T09:45:48.648Z,49.53
2018-12-08T09:48:19.446Z,54.70
2018-12-08T09:50:51.219Z,61.19
2018-12-08T09:53:23.396Z,64.35
2018-12-08T09:55:54.798Z,69.00
2018-12-08T09:58:26.145Z,72.97
2018-12-08T10:00:59.153Z,74.94
2018-12-08T10:03:31.275Z,66.30
2018-12-08T10:06:03.739Z,54.07
2018-12-08T10:08:35.229Z,49.54
2018-12-08T10:11:06.619Z,45.04
2018-12-08T10:13:38.709Z,42.07
2018-12-08T10:16:10.183Z,41.10
2018-12-08T10:18:41.840Z,39.70
2018-12-08T10:21:13.867Z,38.81
2018-12-08T10:23:45.608Z,35.89
2018-12-08T10:26:19.354Z,37.01
2018-12-08T10:28:51.409Z,37.30
2018-12-08T10:31:23.923Z,38.67
2018-12-08T10:33:56.082Z,39.34
2018-12-08T10:36:29.085Z,38.92
2018-12-08T10:39:01.019Z,38.92
2018-12-08T10:41:32.058Z,38.38
2018-12-08T10:44:04.724Z,37.70
2018-12-08T10:46:37.028Z,37.40
2018-12-08T10:49:08.402Z,36.66
2018-12-08T10:51:40.998Z,35.74
2018-12-08T10:54:13.014Z,37.34
2018-12-08T10:56:44.692Z,40.13
2018-12-08T10:59:16.350Z,43.30
2018-12-08T11:01:53.062Z,46.89
2018-12-08T11:04:25.058Z,48.14
2018-12-08T11:06:56.527Z,48.56
2018-12-08T11:09:28.532Z,44.77
2018-12-08T11:12:00.863Z,40.72
2018-12-08T11:14:31.613Z,40.80
2018-12-08T11:17:02.748Z,39.37
2018-12-08T11:19:34.200Z,38.27
2018-12-08T11:22:05.281Z,39.35
2018-12-08T11:24:37.173Z,37.78
2018-12-08T11:27:08.974Z,36.36
2018-12-08T11:29:40.635Z,38.68
2018-12-08T11:32:12.218Z,34.28
2018-12-08T11:34:45.944Z,34.96
2018-12-08T11:37:18.303Z,35.96
2018-12-08T11:39:50.574Z,36.08
2018-12-08T11:42:22.141Z,33.57
2018-12-08T11:44:54.251Z,34.40
2018-12-08T11:47:25.235Z,33.81
2018-12-08T11:49:56.195Z,33.16
2018-12-08T11:52:27.174Z,32.58
2018-12-08T11:54:58.267Z,30.48
2018-12-08T11:57:29.447Z,30.88
2018-12-08T12:00:00.275Z,29.74
2018-12-08T12:02:31.637Z,29.52
2018-12-08T12:05:02.623Z,30.67
2018-12-08T12:07:33.549Z,30.52
2018-12-08T12:10:04.739Z,30.07
2018-12-08T12:12:35.799Z,30.24
2018-12-08T12:15:08.328Z,31.27
2018-12-08T12:17:39.471Z,30.59
2018-12-08T12:20:11.259Z,30.22
2018-12-08T12:22:42.063Z,30.15
2018-12-08T12:25:14.354Z,29.87
2018-12-08T12:27:46.495Z,31.07
2018-12-08T12:30:19.076Z,28.97
2018-12-08T12:32:50.217Z,28.87
2018-12-08T12:35:21.612Z,30.68
2018-12-08T12:37:52.524Z,29.67
2018-12-08T12:40:23.632Z,29.48
2018-12-08T12:42:54.724Z,29.96
2018-12-08T12:45:25.602Z,30.17
2018-12-08T12:47:57.211Z,29.34
2018-12-08T12:50:29.080Z,29.03
2018-12-08T12:53:00.357Z,28.70
2018-12-08T12:55:32.130Z,29.28
2018-12-08T12:58:03.254Z,29.04
2018-12-08T13:00:34.060Z,29.43
2018-12-08T13:03:05.416Z,28.71
2018-12-08T13:05:36.840Z,28.28
2018-12-08T13:08:08.063Z,28.77
2018-12-08T13:10:39.623Z,27.70
2018-12-08T13:13:10.671Z,27.20
2018-12-08T13:15:41.823Z,27.67
2018-12-08T13:18:13.550Z,28.02
2018-12-08T13:20:44.878Z,26.85
2018-12-08T13:23:15.966Z,25.25
2018-12-08T13:25:46.764Z,23.55
2018-12-08T13:28:17.848Z,23.25
2018-12-08T13:30:49.108Z,22.88
2018-12-08T13:33:20.203Z,22.48
2018-12-08T13:35:58.604Z,22.20
2018-12-08T13:38:29.534Z,22.54
2018-12-08T13:41:01.512Z,22.39
2018-12-08T13:43:32.439Z,22.76
2018-12-08T13:46:03.541Z,22.93
2018-12-08T13:48:35.173Z,24.88
2018-12-08T13:51:06.273Z,26.11
2018-12-08T13:53:39.017Z,26.22
2018-12-08T13:56:09.884Z,23.83
2018-12-08T13:58:41.188Z,22.58
2018-12-08T14:01:12.967Z,22.86
2018-12-08T14:03:45.017Z,23.16
2018-12-08T14:06:16.231Z,23.20
2018-12-08T14:08:49.302Z,23.17
2018-12-08T14:11:20.248Z,23.63
2018-12-08T14:13:51.529Z,23.79
2018-12-08T14:16:23.095Z,23.95
2018-12-08T14:18:54.195Z,24.56
2018-12-08T14:21:25.255Z,23.91
2018-12-08T14:23:56.417Z,24.34
2018-12-08T14:26:27.449Z,24.11
2018-12-08T14:28:58.766Z,24.56
2018-12-08T14:31:30.864Z,24.91
2018-12-08T14:34:03.095Z,24.62
2018-12-08T14:36:35.041Z,25.02
2018-12-08T14:39:08.222Z,25.20
2018-12-08T14:41:39.932Z,25.22
2018-12-08T14:44:11.069Z,25.10
2018-12-08T14:46:42.103Z,25.76
2018-12-08T14:49:13.469Z,26.03
2018-12-08T14:51:44.943Z,26.16
2018-12-08T14:54:16.354Z,27.13
2018-12-08T14:56:48.007Z,27.16
2018-12-08T14:59:19.428Z,26.74
2018-12-08T15:01:50.285Z,26.85
2018-12-08T15:04:21.385Z,27.72
2018-12-08T15:06:52.959Z,28.47
2018-12-08T15:09:24.114Z,29.02
2018-12-08T15:11:55.897Z,29.58
2018-12-08T15:14:28.049Z,30.12
2018-12-08T15:16:59.663Z,30.66
2018-12-08T15:19:31.498Z,32.26
2018-12-08T15:22:02.638Z,33.96
2018-12-08T15:24:36.535Z,36.16
2018-12-08T15:27:07.848Z,38.62
2018-12-08T15:29:39.399Z,40.44
2018-12-08T15:32:11.129Z,41.41
2018-12-08T15:34:42.708Z,42.76
2018-12-08T15:37:14.383Z,43.51
2018-12-08T15:39:46.444Z,44.81
2018-12-08T15:42:18.915Z,45.60
2018-12-08T15:44:50.159Z,46.60
2018-12-08T15:47:21.841Z,48.61
2018-12-08T15:49:53.379Z,50.00
2018-12-08T15:52:24.805Z,49.66
2018-12-08T15:54:56.904Z,50.17
2018-12-08T15:57:27.888Z,50.41
2018-12-08T15:59:59.446Z,51.36
2018-12-08T16:02:30.251Z,52.33
2018-12-08T16:05:01.251Z,53.86
2018-12-08T16:07:32.238Z,54.38
2018-12-08T16:10:04.072Z,54.86
2018-12-08T16:12:35.185Z,56.54
2018-12-08T16:15:07.115Z,57.84
2018-12-08T16:17:38.524Z,56.80
2018-12-08T16:20:13.513Z,58.07
2018-12-08T16:22:44.358Z,57.71
2018-12-08T16:25:15.579Z,58.29
2018-12-08T16:27:46.486Z,58.76
2018-12-08T16:30:17.683Z,59.70
2018-12-08T16:39:49.257Z,62.26
2018-12-08T16:42:20.658Z,62.92
2018-12-08T16:44:53.050Z,64.04
2018-12-08T16:47:24.080Z,64.76
2018-12-08T16:49:55.096Z,65.62
2018-12-08T16:52:26.260Z,66.11
2018-12-08T16:54:57.402Z,66.68
2018-12-08T16:57:28.779Z,66.69
2018-12-08T17:00:01.054Z,67.56
2018-12-08T17:02:33.360Z,67.61
2018-12-08T17:05:05.274Z,67.83
2018-12-08T17:07:37.330Z,68.17
2018-12-08T17:10:09.783Z,67.83
2018-12-08T17:12:42.038Z,68.09
2018-12-08T17:15:13.523Z,68.23
2018-12-08T17:17:45.912Z,68.84
2018-12-08T17:20:18.670Z,70.23
2018-12-08T17:22:51.327Z,71.13
2018-12-08T17:25:22.766Z,72.52
2018-12-08T17:27:55.466Z,73.33
2018-12-08T17:30:29.980Z,75.26
2018-12-08T17:33:01.916Z,75.84
2018-12-08T17:35:33.215Z,74.96
2018-12-08T17:38:04.637Z,73.00
2018-12-08T17:40:37.129Z,71.81
2018-12-08T17:43:09.480Z,72.32
2018-12-08T17:45:42.927Z,72.17
2018-12-08T17:48:13.988Z,72.34
2018-12-08T17:50:48.944Z,71.98
2018-12-08T17:53:20.784Z,70.87
2018-12-08T17:55:52.755Z,73.05
2018-12-08T17:58:23.782Z,72.86
2018-12-08T18:00:55.866Z,76.63
2018-12-08T18:03:27.474Z,75.72
2018-12-08T18:05:58.937Z,77.13
2018-12-08T18:08:30.108Z,77.30
2018-12-08T18:11:01.649Z,76.95
2018-12-08T18:13:34.812Z,76.97
2018-12-08T18:16:07.061Z,77.64
2018-12-08T18:18:39.074Z,77.62
2018-12-08T18:21:10.947Z,78.64
2018-12-08T18:23:42.236Z,80.47
2018-12-08T18:26:13.531Z,82.21
2018-12-08T18:28:44.510Z,84.11
2018-12-08T18:31:16.632Z,86.19
2018-12-08T18:33:47.932Z,87.77
2018-12-08T18:36:19.099Z,89.05
2018-12-08T18:38:50.785Z,90.29
2018-12-08T18:41:22.320Z,90.79
2018-12-08T18:43:53.580Z,91.50
2018-12-08T18:46:25.283Z,92.35
2018-12-08T18:48:58.278Z,92.85
2018-12-08T18:51:30.408Z,93.16
2018-12-08T18:54:01.474Z,92.63
2018-12-08T18:56:33.160Z,89.55
2018-12-08T18:59:05.304Z,84.40
2018-12-08T19:02:13.587Z,81.66
2018-12-08T19:04:44.675Z,79.20
2018-12-08T19:07:16.418Z,78.92
2018-12-08T19:09:47.644Z,81.06
2018-12-08T19:12:18.647Z,85.75
2018-12-08T19:14:49.701Z,87.11
2018-12-08T19:17:20.538Z,88.85
2018-12-08T19:19:51.852Z,90.49
2018-12-08T19:22:23.505Z,92.06
2018-12-08T19:24:55.183Z,93.25
2018-12-08T19:27:26.643Z,94.99
2018-12-08T19:29:57.803Z,95.75
2018-12-08T19:32:30.099Z,96.25
2018-12-08T19:35:01.282Z,96.25
2018-12-08T19:37:32.893Z,96.36
2018-12-08T19:40:04.780Z,95.66
2018-12-08T19:42:36.252Z,92.16
2018-12-08T19:45:08.239Z,89.02
2018-12-08T19:47:40.975Z,87.45
2018-12-08T19:50:14.488Z,84.71
2018-12-08T19:52:47.583Z,83.72
2018-12-08T19:55:20.692Z,84.44
2018-12-08T19:57:52.387Z,87.91
2018-12-08T20:00:25.149Z,89.46
2018-12-08T20:02:58.137Z,91.12
2018-12-08T20:05:30.488Z,92.94
2018-12-08T20:08:01.996Z,94.15
2018-12-08T20:10:35.638Z,95.47
2018-12-08T20:13:07.791Z,95.82
2018-12-08T20:15:39.625Z,96.49
2018-12-08T20:18:11.931Z,97.23
2018-12-08T20:20:44.435Z,97.52
2018-12-08T20:23:15.802Z,97.87
2018-12-08T20:25:46.918Z,98.18
2018-12-08T20:28:19.793Z,96.99
2018-12-08T20:30:51.195Z,93.99
2018-12-08T20:33:23.245Z,92.85
2018-12-08T20:35:54.570Z,91.77
2018-12-08T20:38:26.150Z,92.91
2018-12-08T20:40:57.479Z,93.58
2018-12-08T20:43:28.634Z,90.72
2018-12-08T20:46:00.153Z,89.14
2018-12-08T20:48:31.615Z,89.65
2018-12-08T20:51:03.679Z,90.95
2018-12-08T20:53:35.593Z,90.55
2018-12-08T20:56:07.805Z,91.08
2018-12-08T20:58:40.322Z,91.32
2018-12-08T21:01:12.534Z,94.12
2018-12-08T21:03:44.533Z,94.36
2018-12-08T21:06:15.893Z,95.45
2018-12-08T21:08:46.988Z,96.50
2018-12-08T21:11:19.403Z,97.69
2018-12-08T21:13:50.950Z,99.18
2018-12-08T21:16:23.160Z,97.95
2018-12-08T21:18:55.962Z,93.92
2018-12-08T21:21:26.844Z,91.89
2018-12-08T21:23:58.282Z,91.84
2018-12-08T21:26:29.545Z,92.12
2018-12-08T21:29:00.859Z,93.00
2018-12-08T21:31:32.191Z,94.30
2018-12-08T21:34:03.598Z,95.25
2018-12-08T21:36:34.778Z,96.59
2018-12-08T21:39:06.927Z,97.67
2018-12-08T21:41:38.103Z,99.30
2018-12-08T21:44:08.862Z,100.00
2018-12-08T21:46:39.969Z,99.90
2018-12-08T21:49:11.361Z,99.13
2018-12-08T21:51:42.716Z,98.94
2018-12-08T21:54:13.695Z,97.10
2018-12-08T21:56:44.897Z,94.21
2018-12-08T21:59:15.906Z,93.57
2018-12-08T22:01:47.715Z,93.77
2018-12-08T22:04:18.722Z,94.06
2018-12-08T22:06:49.975Z,95.41
2018-12-08T22:09:20.986Z,96.63
2018-12-08T22:11:52.001Z,98.61
2018-12-08T22:14:23.118Z,100.00
2018-12-08T22:16:54.191Z,100.00
2018-12-08T22:19:26.295Z,100.00
2018-12-08T22:21:57.183Z,100.00
2018-12-08T22:24:29.299Z,100.00
2018-12-08T22:27:00.055Z,100.00
2018-12-08T22:29:30.913Z,100.00
2018-12-08T22:32:02.071Z,100.00
2018-12-08T22:34:33.200Z,100.00
2018-12-08T22:37:04.200Z,100.00
2018-12-08T22:39:35.096Z,100.00
2018-12-08T22:42:06.199Z,100.00
2018-12-08T22:44:37.226Z,100.00
2018-12-08T22:47:08.301Z,100.00
2018-12-08T22:49:39.269Z,100.00
2018-12-08T22:52:10.039Z,100.00
2018-12-08T22:54:41.052Z,100.00
2018-12-08T22:57:12.244Z,100.00
2018-12-08T22:59:43.111Z,100.00
2018-12-08T23:02:14.175Z,100.00
2018-12-08T23:04:45.166Z,100.00
2018-12-08T23:07:16.333Z,100.00
2018-12-08T23:09:47.397Z,100.00
2018-12-08T23:12:18.375Z,100.00
2018-12-08T23:14:49.507Z,100.00
2018-12-08T23:17:20.834Z,100.00
2018-12-08T23:19:52.790Z,100.00
2018-12-08T23:22:23.577Z,100.00
2018-12-08T23:24:55.298Z,100.00
2018-12-08T23:27:27.174Z,100.00
2018-12-08T23:29:58.591Z,100.00
2018-12-08T23:32:29.940Z,100.00
2018-12-08T23:35:01.379Z,100.00
2018-12-08T23:37:32.925Z,100.00
2018-12-08T23:40:03.897Z,100.00
2018-12-08T23:42:34.758Z,100.00
2018-12-08T23:45:05.923Z,100.00
2018-12-08T23:47:36.745Z,100.00
2018-12-08T23:50:09.604Z,100.00
2018-12-08T23:52:40.356Z,100.00
2018-12-08T23:55:12.498Z,100.00
2018-12-08T23:57:43.488Z,100.00
